Terminal Aerodrome Forecast
Issued by NWS

Home | Current Version | Previous Version | Text Only | Print | Product List | Glossary On
Versions: 1 2 3 4 5 6 7 8 9 10 11 12 13 14 15 16 17 18 19
000
FTAK31 PAFA 290536
TAFAFA
TAF
PAFA 290536Z 2906/3012 18005KT P6SM SCT035 BKN090 WS015/23035KT
      TEMPO 2906/2909 24012G18KT
     FM291100 24008KT P6SM OVC050
     FM291600 24004KT 4SM BR OVC015
     FM291900 26004KT P6SM OVC050=

USA.gov is the U.S. government's official web portal to all federal, state and local government web resources and services.